createdAt,value
2023-04-15T00:00:55.327Z,0.68
2023-04-15T00:01:55.380Z,0.73
2023-04-15T00:02:55.537Z,0.75
2023-04-15T00:03:55.412Z,0.73
2023-04-15T00:04:55.348Z,0.73
2023-04-15T00:05:55.314Z,0.69
2023-04-15T00:06:55.273Z,0.63
2023-04-15T00:07:55.266Z,0.58
2023-04-15T00:08:55.265Z,0.62
2023-04-15T00:09:55.293Z,0.65
2023-04-15T00:10:55.278Z,0.51
2023-04-15T00:11:55.272Z,0.51
2023-04-15T00:12:55.256Z,0.56
2023-04-15T00:13:55.293Z,0.51
2023-04-15T00:14:55.354Z,0.55
2023-04-15T00:15:55.308Z,0.58
2023-04-15T00:16:55.354Z,0.58
2023-04-15T00:17:55.366Z,0.58
2023-04-15T00:18:55.356Z,0.55
2023-04-15T00:19:55.410Z,0.55
2023-04-15T00:20:55.411Z,0.52
2023-04-15T00:21:55.455Z,0.50
2023-04-15T00:22:55.470Z,0.57
2023-04-15T00:23:55.481Z,0.53
2023-04-15T00:24:55.527Z,0.54
2023-04-15T00:25:55.577Z,0.54
2023-04-15T00:26:55.550Z,0.63
2023-04-15T00:27:55.574Z,0.63
2023-04-15T00:28:55.588Z,0.65
2023-04-15T00:29:55.575Z,0.63
2023-04-15T00:30:55.685Z,0.61
2023-04-15T00:31:55.690Z,0.60
2023-04-15T00:32:55.734Z,0.58
2023-04-15T00:33:55.677Z,0.58
2023-04-15T00:34:55.680Z,0.55
2023-04-15T00:35:55.708Z,0.62
2023-04-15T00:36:55.720Z,0.59
2023-04-15T00:37:55.731Z,0.56
2023-04-15T00:38:55.740Z,0.57
2023-04-15T00:39:55.758Z,0.57
2023-04-15T00:40:55.774Z,0.56
2023-04-15T00:41:55.777Z,0.58
2023-04-15T00:42:55.799Z,0.59
2023-04-15T00:43:55.851Z,0.57
2023-04-15T00:44:55.830Z,0.58
2023-04-15T00:45:55.871Z,0.61
2023-04-15T00:46:55.836Z,0.66
2023-04-15T00:47:55.899Z,0.66
2023-04-15T00:48:55.859Z,0.62
2023-04-15T00:49:55.895Z,0.62
2023-04-15T00:50:55.902Z,0.60
2023-04-15T00:51:55.921Z,0.60
2023-04-15T00:52:55.937Z,0.58
2023-04-15T00:53:55.992Z,0.53
2023-04-15T00:54:55.999Z,0.50
2023-04-15T00:55:56.030Z,0.55
2023-04-15T00:56:56.040Z,0.58
2023-04-15T00:57:56.049Z,0.65
2023-04-15T00:58:56.089Z,0.70
2023-04-15T00:59:56.134Z,0.66
2023-04-15T01:00:56.107Z,0.68
2023-04-15T01:01:56.245Z,0.63
2023-04-15T01:02:56.227Z,0.59
2023-04-15T01:03:56.361Z,0.61
2023-04-15T01:04:56.189Z,0.63
2023-04-15T01:05:56.190Z,0.56
2023-04-15T01:06:56.182Z,0.53
2023-04-15T01:07:56.201Z,0.51
2023-04-15T01:08:56.236Z,0.52
2023-04-15T01:09:56.263Z,0.56
2023-04-15T01:10:56.260Z,0.55
2023-04-15T01:11:56.291Z,0.54
2023-04-15T01:12:56.338Z,0.58
2023-04-15T01:13:56.371Z,0.51
2023-04-15T01:14:56.393Z,0.52
2023-04-15T01:15:56.449Z,0.56
2023-04-15T01:16:56.433Z,0.57
2023-04-15T01:17:56.471Z,0.56
2023-04-15T01:18:56.474Z,0.59
2023-04-15T01:19:56.461Z,0.59
2023-04-15T01:20:56.508Z,0.54
2023-04-15T01:21:56.498Z,0.51
2023-04-15T01:22:56.540Z,0.50
2023-04-15T01:23:56.549Z,0.51
2023-04-15T01:24:56.592Z,0.55
2023-04-15T01:25:56.565Z,0.56
2023-04-15T01:26:56.568Z,0.57
2023-04-15T01:27:56.587Z,0.59
2023-04-15T01:28:56.609Z,0.57
2023-04-15T01:29:56.632Z,0.58
2023-04-15T01:30:56.649Z,0.58
2023-04-15T01:31:56.833Z,0.50
2023-04-15T01:32:56.743Z,0.51
2023-04-15T01:33:56.724Z,0.51
2023-04-15T01:34:56.748Z,0.55
2023-04-15T01:35:56.737Z,0.59
2023-04-15T01:36:56.757Z,0.55
2023-04-15T01:37:56.761Z,0.56
2023-04-15T01:38:56.794Z,0.59
2023-04-15T01:39:56.791Z,0.62
2023-04-15T01:40:56.780Z,0.59
2023-04-15T01:41:56.797Z,0.59
2023-04-15T01:42:56.810Z,0.59
2023-04-15T01:43:56.844Z,0.60
2023-04-15T01:44:56.834Z,0.55
2023-04-15T01:45:56.838Z,0.51
2023-04-15T01:46:56.976Z,0.51
2023-04-15T01:47:56.904Z,0.53
2023-04-15T01:48:56.934Z,0.55
2023-04-15T01:49:56.890Z,0.53
2023-04-15T01:50:56.888Z,0.54
2023-04-15T01:51:56.921Z,0.57
2023-04-15T01:52:56.913Z,0.53
2023-04-15T01:53:56.947Z,0.57
2023-04-15T01:54:56.955Z,0.51
2023-04-15T01:55:56.975Z,0.51
2023-04-15T01:56:57.013Z,0.53
2023-04-15T01:57:57.040Z,0.50
2023-04-15T01:58:57.061Z,0.54
2023-04-15T01:59:57.150Z,0.46
2023-04-15T02:00:57.189Z,0.50
2023-04-15T02:01:57.189Z,0.62
2023-04-15T02:02:57.269Z,0.71
2023-04-15T02:03:57.230Z,0.73
2023-04-15T02:04:57.174Z,0.78
2023-04-15T02:05:57.164Z,0.74
2023-04-15T02:06:57.184Z,0.74
2023-04-15T02:07:57.167Z,0.72
2023-04-15T02:08:57.174Z,0.71
2023-04-15T02:09:57.208Z,0.70
2023-04-15T02:10:57.168Z,0.68
2023-04-15T02:11:57.160Z,0.67
2023-04-15T02:12:57.180Z,0.70
2023-04-15T02:13:57.170Z,0.74
2023-04-15T02:14:57.210Z,0.73
2023-04-15T02:15:57.184Z,0.72
2023-04-15T02:16:57.241Z,0.72
2023-04-15T02:17:57.268Z,0.69
2023-04-15T02:18:57.191Z,0.73
2023-04-15T02:19:57.208Z,0.66
2023-04-15T02:20:57.215Z,0.71
2023-04-15T02:21:57.199Z,0.71
2023-04-15T02:22:57.205Z,0.72
2023-04-15T02:23:57.187Z,0.74
2023-04-15T02:24:57.210Z,0.67
2023-04-15T02:25:57.264Z,0.70
2023-04-15T02:26:57.233Z,0.70
2023-04-15T02:27:57.241Z,0.70
2023-04-15T02:28:57.248Z,0.69
2023-04-15T02:29:57.260Z,0.64
2023-04-15T02:30:57.278Z,0.57
2023-04-15T02:31:57.352Z,0.62
2023-04-15T02:32:57.287Z,0.66
2023-04-15T02:33:57.290Z,0.67
2023-04-15T02:34:57.310Z,0.64
2023-04-15T02:35:57.409Z,0.64
2023-04-15T02:36:57.334Z,0.65
2023-04-15T02:37:57.353Z,0.59
2023-04-15T02:38:57.341Z,0.57
2023-04-15T02:39:57.364Z,0.56
2023-04-15T02:40:57.363Z,0.54
2023-04-15T02:41:57.391Z,0.51
2023-04-15T02:42:57.389Z,0.53
2023-04-15T02:43:57.399Z,0.50
2023-04-15T02:44:57.434Z,0.50
2023-04-15T02:45:57.442Z,0.53
2023-04-15T02:46:57.398Z,0.57
2023-04-15T02:47:57.441Z,0.61
2023-04-15T02:48:57.390Z,0.68
2023-04-15T02:49:57.405Z,0.59
2023-04-15T02:50:57.387Z,0.59
2023-04-15T02:51:57.392Z,0.54
2023-04-15T02:52:57.406Z,0.53
2023-04-15T02:53:57.440Z,0.48
2023-04-15T02:54:57.489Z,0.49
2023-04-15T02:55:57.498Z,0.51
2023-04-15T02:56:57.495Z,0.61
2023-04-15T02:57:57.493Z,0.72
2023-04-15T02:58:57.497Z,0.62
2023-04-15T02:59:57.496Z,0.74
2023-04-15T03:00:57.521Z,0.78
2023-04-15T03:01:57.496Z,0.67
2023-04-15T03:02:57.588Z,0.67
2023-04-15T03:03:57.544Z,0.64
2023-04-15T03:04:57.492Z,0.74
2023-04-15T03:05:57.489Z,0.69
2023-04-15T03:06:57.517Z,0.67
2023-04-15T03:07:57.502Z,0.68
2023-04-15T03:08:57.503Z,0.72
2023-04-15T03:09:57.506Z,0.71
2023-04-15T03:10:57.500Z,0.75
2023-04-15T03:11:57.532Z,0.72
2023-04-15T03:12:57.551Z,0.62
2023-04-15T03:13:57.529Z,0.60
2023-04-15T03:14:57.550Z,0.56
2023-04-15T03:15:57.683Z,0.64
2023-04-15T03:16:57.569Z,0.66
2023-04-15T03:17:57.602Z,0.71
2023-04-15T03:18:57.616Z,0.63
2023-04-15T03:19:57.675Z,0.64
2023-04-15T03:20:57.624Z,0.68
2023-04-15T03:21:57.637Z,0.64
2023-04-15T03:22:57.647Z,0.63
2023-04-15T03:23:57.681Z,0.70
2023-04-15T03:24:57.714Z,0.67
2023-04-15T03:25:57.716Z,0.72
2023-04-15T03:26:57.720Z,0.70
2023-04-15T03:27:57.727Z,0.66
2023-04-15T03:28:57.714Z,0.59
2023-04-15T03:29:57.748Z,0.58
2023-04-15T03:30:57.772Z,0.52
2023-04-15T03:31:57.751Z,0.64
2023-04-15T03:32:57.788Z,0.62
2023-04-15T03:33:57.758Z,0.58
2023-04-15T03:34:57.797Z,0.62
2023-04-15T03:35:57.780Z,0.61
2023-04-15T03:36:57.783Z,0.65
2023-04-15T03:37:57.788Z,0.70
2023-04-15T03:38:57.815Z,0.74
2023-04-15T03:39:57.792Z,0.66
2023-04-15T03:40:57.781Z,0.69
2023-04-15T03:41:57.800Z,0.66
2023-04-15T03:42:57.798Z,0.58
2023-04-15T03:43:57.796Z,0.62
2023-04-15T03:44:57.827Z,0.61
2023-04-15T03:45:58.404Z,0.61
2023-04-15T03:46:57.841Z,0.67
2023-04-15T03:48:07.279Z,0.68
2023-04-15T03:48:58.952Z,0.55
2023-04-15T03:49:57.831Z,0.62
2023-04-15T03:50:57.836Z,0.63
2023-04-15T03:51:57.815Z,0.65
2023-04-15T03:52:57.822Z,0.69
2023-04-15T03:53:57.821Z,0.70
2023-04-15T03:54:57.815Z,0.77
2023-04-15T03:55:57.809Z,0.71
2023-04-15T03:56:57.801Z,0.68
2023-04-15T03:57:57.793Z,0.66
2023-04-15T03:58:57.811Z,0.60
2023-04-15T03:59:57.886Z,0.58
2023-04-15T04:00:57.759Z,0.59
2023-04-15T04:01:57.853Z,0.55
2023-04-15T04:02:57.924Z,0.57
2023-04-15T04:03:57.865Z,0.55
2023-04-15T04:04:57.760Z,0.57
2023-04-15T04:05:57.735Z,0.53
2023-04-15T04:06:57.707Z,0.53
2023-04-15T04:07:57.709Z,0.51
2023-04-15T04:08:57.707Z,0.57
2023-04-15T04:09:57.699Z,0.51
2023-04-15T04:10:57.696Z,0.48
2023-04-15T04:11:57.670Z,0.51
2023-04-15T04:12:57.698Z,0.53
2023-04-15T04:13:57.666Z,0.52
2023-04-15T04:14:57.680Z,0.57
2023-04-15T04:15:57.706Z,0.64
2023-04-15T04:16:57.693Z,0.65
2023-04-15T04:17:57.714Z,0.74
2023-04-15T04:18:57.638Z,0.75
2023-04-15T04:19:57.642Z,0.61
2023-04-15T04:20:57.626Z,0.59
2023-04-15T04:21:57.623Z,0.58
2023-04-15T04:22:57.605Z,0.55
2023-04-15T04:23:57.608Z,0.59
2023-04-15T04:24:57.618Z,0.53
2023-04-15T04:25:57.633Z,0.51
2023-04-15T04:26:57.630Z,0.51
2023-04-15T04:27:57.644Z,0.54
2023-04-15T04:28:57.645Z,0.56
2023-04-15T04:29:57.651Z,0.61
2023-04-15T04:30:57.669Z,0.59
2023-04-15T04:31:57.671Z,0.65
2023-04-15T04:32:57.673Z,0.65
2023-04-15T04:33:57.643Z,0.69
2023-04-15T04:34:57.641Z,0.77
2023-04-15T04:35:57.644Z,0.70
2023-04-15T04:36:57.659Z,0.59
2023-04-15T04:37:57.654Z,0.69
2023-04-15T04:38:57.674Z,0.60
2023-04-15T04:39:57.675Z,0.57
2023-04-15T04:40:57.661Z,0.66
2023-04-15T04:41:57.681Z,0.80
2023-04-15T04:42:57.736Z,0.71
2023-04-15T04:43:57.744Z,0.61
2023-04-15T04:44:57.817Z,0.53
2023-04-15T04:45:57.886Z,0.65
2023-04-15T04:46:57.907Z,0.65
2023-04-15T04:47:58.022Z,0.57
2023-04-15T04:48:58.026Z,0.50
2023-04-15T04:49:58.021Z,0.53
2023-04-15T04:50:58.071Z,0.63
2023-04-15T04:51:58.120Z,0.56
2023-04-15T04:52:58.242Z,0.54
2023-04-15T04:53:58.378Z,0.66
2023-04-15T04:54:58.521Z,0.69
2023-04-15T04:55:58.759Z,0.68
2023-04-15T04:56:58.839Z,0.63
2023-04-15T04:57:59.063Z,0.60
2023-04-15T04:58:59.245Z,0.63
2023-04-15T04:59:59.312Z,0.64
2023-04-15T05:00:59.515Z,0.61
2023-04-15T05:01:59.722Z,0.59
2023-04-15T05:02:59.902Z,0.54
2023-04-15T05:04:00.161Z,0.50
2023-04-15T05:05:00.171Z,0.53
2023-04-15T05:06:00.294Z,0.62
2023-04-15T05:07:00.458Z,0.55
2023-04-15T05:08:00.599Z,0.52
2023-04-15T05:09:01.017Z,0.55
2023-04-15T05:10:00.952Z,0.52
2023-04-15T05:11:01.143Z,0.50
2023-04-15T05:12:01.292Z,0.55
2023-04-15T05:13:01.427Z,0.67
2023-04-15T05:14:01.582Z,0.74
2023-04-15T05:15:01.738Z,0.68
2023-04-15T05:16:01.916Z,0.74
2023-04-15T05:17:02.032Z,0.70
2023-04-15T05:18:02.327Z,0.76
2023-04-15T05:19:02.518Z,0.88
2023-04-15T05:20:02.508Z,0.90
2023-04-15T05:21:02.646Z,0.84
2023-04-15T05:22:02.820Z,0.95
2023-04-15T05:23:03.064Z,0.97
2023-04-15T05:24:03.134Z,1.00
2023-04-15T05:25:03.320Z,1.07
2023-04-15T05:26:03.470Z,0.94
2023-04-15T05:27:03.633Z,0.96
2023-04-15T05:28:03.780Z,1.06
2023-04-15T05:29:04.057Z,1.01
2023-04-15T05:30:04.067Z,1.07
2023-04-15T05:31:04.277Z,1.23
2023-04-15T05:32:04.358Z,1.18
2023-04-15T05:33:04.669Z,1.18
2023-04-15T05:34:04.654Z,1.28
2023-04-15T05:35:04.831Z,1.21
2023-04-15T05:36:05.004Z,1.29
2023-04-15T05:37:05.116Z,1.36
2023-04-15T05:38:05.294Z,1.34
2023-04-15T05:39:05.410Z,1.38
2023-04-15T05:40:05.571Z,1.55
2023-04-15T05:41:05.707Z,1.39
2023-04-15T05:42:05.848Z,1.39
2023-04-15T05:43:06.018Z,1.42
2023-04-15T05:44:06.158Z,1.33
2023-04-15T05:45:06.343Z,1.50
2023-04-15T05:46:06.573Z,1.38
2023-04-15T05:47:06.689Z,1.52
2023-04-15T05:48:06.860Z,1.50
2023-04-15T05:49:07.089Z,1.45
2023-04-15T05:50:07.165Z,1.39
2023-04-15T05:51:07.373Z,1.55
2023-04-15T05:52:07.487Z,1.52
2023-04-15T05:53:07.648Z,1.56
2023-04-15T05:54:07.782Z,1.53
2023-04-15T05:55:07.960Z,1.57
2023-04-15T05:56:08.171Z,1.60
2023-04-15T05:57:08.320Z,1.63
2023-04-15T05:58:08.483Z,1.53
2023-04-15T05:59:08.678Z,1.58
2023-04-15T06:00:08.847Z,1.59
2023-04-15T06:01:09.010Z,1.61
2023-04-15T06:02:09.007Z,1.53
2023-04-15T06:03:09.191Z,1.64
2023-04-15T06:04:09.118Z,1.56
2023-04-15T06:05:09.278Z,1.53
2023-04-15T06:06:09.037Z,1.49
2023-04-15T06:07:09.026Z,1.58
2023-04-15T06:08:09.026Z,1.53
2023-04-15T06:09:09.015Z,1.51
2023-04-15T06:10:09.020Z,1.59
2023-04-15T06:11:09.038Z,1.42
2023-04-15T06:12:09.011Z,1.37
2023-04-15T06:13:08.992Z,1.47
2023-04-15T06:14:08.994Z,1.42
2023-04-15T06:15:08.997Z,1.41
2023-04-15T06:16:09.002Z,1.50
2023-04-15T06:17:08.962Z,1.45
2023-04-15T06:18:08.955Z,1.59
2023-04-15T06:19:08.951Z,1.52
2023-04-15T06:20:08.971Z,1.54
2023-04-15T06:21:08.963Z,1.52
2023-04-15T06:22:08.940Z,1.52
2023-04-15T06:23:08.960Z,1.52
2023-04-15T06:24:08.925Z,1.64
2023-04-15T06:25:08.942Z,1.70
2023-04-15T06:26:08.903Z,1.72
2023-04-15T06:27:08.898Z,1.83
2023-04-15T06:28:08.911Z,1.77
2023-04-15T06:29:08.923Z,1.79
2023-04-15T06:30:08.885Z,1.91
2023-04-15T06:31:08.907Z,2.12
2023-04-15T06:32:08.874Z,1.89
2023-04-15T06:33:08.865Z,1.76
2023-04-15T06:34:08.848Z,1.90
2023-04-15T06:35:08.871Z,2.03
2023-04-15T06:36:08.835Z,1.98
2023-04-15T06:37:08.847Z,1.88
2023-04-15T06:38:08.833Z,2.11
2023-04-15T06:39:08.849Z,2.03
2023-04-15T06:40:08.850Z,2.10
2023-04-15T06:41:08.854Z,2.12
2023-04-15T06:42:08.901Z,1.97
2023-04-15T06:43:08.941Z,2.06
2023-04-15T06:44:08.989Z,2.18
2023-04-15T06:45:09.043Z,2.13
2023-04-15T06:46:09.116Z,2.00
2023-04-15T06:47:09.173Z,2.03
2023-04-15T06:48:09.192Z,2.03
2023-04-15T06:49:09.244Z,2.06
2023-04-15T06:50:09.297Z,1.91
2023-04-15T06:51:09.372Z,1.94
2023-04-15T06:52:09.390Z,1.97
2023-04-15T06:53:09.462Z,1.92
2023-04-15T06:54:09.505Z,2.00
2023-04-15T06:55:09.542Z,2.00
2023-04-15T06:56:09.632Z,1.89
2023-04-15T06:57:09.636Z,1.90
2023-04-15T06:58:09.697Z,2.07
2023-04-15T06:59:09.755Z,1.93
2023-04-15T07:00:09.782Z,1.96
2023-04-15T07:01:09.874Z,1.88
2023-04-15T07:02:09.919Z,2.00
2023-04-15T07:03:09.966Z,1.92
2023-04-15T07:04:10.030Z,1.92
2023-04-15T07:05:10.037Z,2.03
2023-04-15T07:06:10.082Z,2.11
2023-04-15T07:07:10.121Z,2.07
2023-04-15T07:08:10.175Z,2.12
2023-04-15T07:09:10.236Z,2.06
2023-04-15T07:10:10.329Z,1.90
2023-04-15T07:11:10.329Z,1.82
2023-04-15T07:12:10.387Z,1.67
2023-04-15T07:13:10.419Z,1.60
2023-04-15T07:14:10.450Z,1.62
2023-04-15T07:15:10.507Z,1.62
2023-04-15T07:16:10.591Z,1.60
2023-04-15T07:17:10.659Z,1.73
2023-04-15T07:18:10.651Z,1.75
2023-04-15T07:19:10.687Z,1.91
2023-04-15T07:20:10.737Z,1.66
2023-04-15T07:21:10.765Z,1.76
2023-04-15T07:22:10.797Z,1.80
2023-04-15T07:23:10.897Z,1.78
2023-04-15T07:24:10.903Z,1.89
2023-04-15T07:25:10.927Z,1.90
2023-04-15T07:26:10.961Z,1.86
2023-04-15T07:27:11.030Z,1.82
2023-04-15T07:28:11.104Z,1.92
2023-04-15T07:29:11.113Z,1.88
2023-04-15T07:30:11.150Z,1.99
2023-04-15T07:31:11.307Z,1.98
2023-04-15T07:32:11.265Z,1.95
2023-04-15T07:33:11.298Z,1.98
2023-04-15T07:34:11.346Z,1.99
2023-04-15T07:35:11.358Z,1.86
2023-04-15T07:36:11.414Z,1.96
2023-04-15T07:37:11.454Z,1.89
2023-04-15T07:38:11.487Z,2.03
2023-04-15T07:39:11.523Z,1.92
2023-04-15T07:40:11.575Z,1.98
2023-04-15T07:41:11.595Z,1.85
2023-04-15T07:42:11.619Z,1.99
2023-04-15T07:43:11.664Z,2.01
2023-04-15T07:44:11.701Z,1.86
2023-04-15T07:45:11.736Z,1.87
2023-04-15T07:46:11.822Z,2.28
2023-04-15T07:47:11.821Z,2.41
2023-04-15T07:48:11.841Z,2.51
2023-04-15T07:49:11.897Z,2.59
2023-04-15T07:50:11.941Z,2.60
2023-04-15T07:51:11.983Z,2.59
2023-04-15T07:52:12.022Z,2.52
2023-04-15T07:53:12.078Z,2.54
2023-04-15T07:54:12.110Z,2.52
2023-04-15T07:55:12.180Z,2.40
2023-04-15T07:56:12.206Z,2.61
2023-04-15T07:57:12.247Z,2.67
2023-04-15T07:58:12.297Z,2.75
2023-04-15T07:59:12.346Z,2.77
2023-04-15T08:00:12.381Z,2.69
2023-04-15T08:01:12.429Z,2.85
2023-04-15T08:02:12.519Z,2.76
2023-04-15T08:03:12.673Z,2.74
2023-04-15T08:04:12.632Z,2.78
2023-04-15T08:05:12.624Z,2.71
2023-04-15T08:06:12.646Z,2.75
2023-04-15T08:07:12.688Z,2.74
2023-04-15T08:08:12.741Z,2.68
2023-04-15T08:09:12.760Z,2.56
2023-04-15T08:10:12.820Z,2.62
2023-04-15T08:11:12.845Z,2.60
2023-04-15T08:12:12.890Z,2.47
2023-04-15T08:13:12.931Z,2.40
2023-04-15T08:14:12.948Z,2.36
2023-04-15T08:15:12.997Z,2.37
2023-04-15T08:16:13.041Z,2.32
2023-04-15T08:17:13.058Z,2.19
2023-04-15T08:18:13.063Z,1.91
2023-04-15T08:19:13.092Z,1.94
2023-04-15T08:20:13.132Z,1.83
2023-04-15T08:21:13.168Z,1.79
2023-04-15T08:22:18.047Z,1.78
2023-04-15T08:23:14.198Z,1.78
2023-04-15T08:24:13.174Z,1.78
2023-04-15T08:25:13.185Z,1.76
2023-04-15T08:26:13.175Z,1.79
2023-04-15T08:27:13.164Z,1.79
2023-04-15T08:28:13.157Z,1.76
2023-04-15T08:29:13.144Z,1.74
2023-04-15T08:30:13.130Z,1.69
2023-04-15T08:31:13.143Z,1.69
2023-04-15T08:32:13.143Z,1.60
2023-04-15T08:33:13.114Z,1.61
2023-04-15T08:34:13.117Z,1.63
2023-04-15T08:35:13.105Z,1.62
2023-04-15T08:36:13.096Z,1.58
2023-04-15T08:37:13.093Z,1.45
2023-04-15T08:38:13.085Z,1.43
2023-04-15T08:39:13.067Z,1.47
2023-04-15T08:40:13.067Z,1.41
2023-04-15T08:41:13.044Z,1.40
2023-04-15T08:42:13.054Z,1.34
2023-04-15T08:43:13.042Z,1.34
2023-04-15T08:44:13.036Z,1.31
2023-04-15T08:45:13.031Z,1.27
2023-04-15T08:46:13.044Z,1.28
2023-04-15T08:47:13.029Z,1.30
2023-04-15T08:48:13.045Z,1.25
2023-04-15T08:49:13.018Z,1.25
2023-04-15T08:50:13.038Z,1.34
2023-04-15T08:51:13.041Z,1.37
2023-04-15T08:52:13.086Z,1.36
2023-04-15T08:53:13.115Z,1.36
2023-04-15T08:54:13.126Z,1.36
2023-04-15T08:55:13.163Z,1.37
2023-04-15T08:56:13.211Z,1.43
2023-04-15T08:57:13.224Z,1.44
2023-04-15T08:58:13.261Z,1.39
2023-04-15T08:59:13.320Z,1.38
2023-04-15T09:00:13.390Z,1.43
2023-04-15T09:01:13.459Z,1.45
2023-04-15T09:02:13.567Z,1.40
2023-04-15T09:03:13.601Z,1.39
2023-04-15T09:04:13.698Z,1.38
2023-04-15T09:05:13.677Z,1.40
2023-04-15T09:06:13.737Z,1.42
2023-04-15T09:07:13.776Z,1.33
2023-04-15T09:08:13.926Z,1.37
2023-04-15T09:09:13.872Z,1.42
2023-04-15T09:10:13.938Z,1.40
2023-04-15T09:11:13.989Z,1.42
2023-04-15T09:12:14.022Z,1.39
2023-04-15T09:13:14.076Z,1.38
2023-04-15T09:14:14.119Z,1.41
2023-04-15T09:15:14.151Z,1.35
2023-04-15T09:16:14.237Z,1.35
2023-04-15T09:17:14.244Z,1.34
2023-04-15T09:18:14.288Z,1.30
2023-04-15T09:19:14.333Z,1.27
2023-04-15T09:20:14.373Z,1.27
2023-04-15T09:21:14.409Z,1.32
2023-04-15T09:22:14.452Z,1.36
2023-04-15T09:23:14.507Z,1.34
2023-04-15T09:24:14.537Z,1.34
2023-04-15T09:25:14.562Z,1.37
2023-04-15T09:26:14.599Z,1.40
2023-04-15T09:27:14.642Z,1.39
2023-04-15T09:28:14.680Z,1.31
2023-04-15T09:29:14.708Z,1.30
2023-04-15T09:30:14.745Z,1.30
2023-04-15T09:31:14.824Z,1.32
2023-04-15T09:32:14.783Z,1.37
2023-04-15T09:33:14.816Z,1.38
2023-04-15T09:34:14.847Z,1.40
2023-04-15T09:35:14.870Z,1.34
2023-04-15T09:36:14.913Z,1.35
2023-04-15T09:37:28.584Z,1.33
2023-04-15T09:38:15.931Z,1.33
2023-04-15T09:39:14.915Z,1.34
2023-04-15T09:40:14.916Z,1.37
2023-04-15T09:41:14.892Z,1.41
2023-04-15T09:42:14.893Z,1.39
2023-04-15T09:43:14.886Z,1.37
2023-04-15T09:44:14.871Z,1.42
2023-04-15T09:45:14.874Z,1.38
2023-04-15T09:46:14.914Z,1.44
2023-04-15T09:47:14.861Z,1.50
2023-04-15T09:48:14.894Z,1.51
2023-04-15T09:49:14.882Z,1.44
2023-04-15T09:50:14.866Z,1.44
2023-04-15T09:51:14.837Z,1.30
2023-04-15T09:52:14.838Z,1.35
2023-04-15T09:53:14.832Z,1.29
2023-04-15T09:54:14.854Z,1.30
2023-04-15T09:55:14.828Z,1.23
2023-04-15T09:56:14.822Z,1.31
2023-04-15T09:57:14.810Z,1.31
2023-04-15T09:58:14.787Z,1.32
2023-04-15T09:59:14.784Z,1.39
2023-04-15T10:00:14.836Z,1.30
2023-04-15T10:01:14.823Z,1.28
2023-04-15T10:02:14.867Z,1.27
2023-04-15T10:03:14.825Z,1.28
2023-04-15T10:04:14.880Z,1.24
2023-04-15T10:05:14.766Z,1.34
2023-04-15T10:06:14.746Z,1.24
2023-04-15T10:07:14.735Z,1.26
2023-04-15T10:08:14.736Z,1.22
2023-04-15T10:09:14.755Z,1.19
2023-04-15T10:10:14.780Z,1.26
2023-04-15T10:11:14.737Z,1.17
2023-04-15T10:12:14.742Z,1.22
2023-04-15T10:13:14.744Z,1.21
2023-04-15T10:14:14.769Z,1.27
2023-04-15T10:15:14.771Z,1.23
2023-04-15T10:16:14.775Z,1.13
2023-04-15T10:17:14.771Z,1.15
2023-04-15T10:18:14.817Z,1.14
2023-04-15T10:19:14.770Z,1.16
2023-04-15T10:20:14.810Z,1.19
2023-04-15T10:21:14.768Z,1.17
2023-04-15T10:22:14.771Z,1.06
2023-04-15T10:23:14.804Z,1.06
2023-04-15T10:24:14.794Z,1.13
2023-04-15T10:25:14.781Z,1.09
2023-04-15T10:26:14.909Z,1.04
2023-04-15T10:27:14.909Z,1.03
2023-04-15T10:28:14.954Z,1.03
2023-04-15T10:29:14.946Z,1.04
2023-04-15T10:30:14.960Z,0.92
2023-04-15T10:31:15.053Z,0.88
2023-04-15T10:32:14.948Z,1.02
2023-04-15T10:33:14.942Z,0.99
2023-04-15T10:34:14.953Z,0.92
2023-04-15T10:35:14.949Z,0.92
2023-04-15T10:36:14.981Z,0.86
2023-04-15T10:37:14.967Z,0.89
2023-04-15T10:38:14.984Z,1.00
2023-04-15T10:39:14.969Z,0.91
2023-04-15T10:40:14.965Z,0.93
2023-04-15T10:41:15.801Z,0.96
2023-04-15T10:42:14.967Z,0.94
2023-04-15T10:43:14.972Z,0.97
2023-04-15T10:44:14.961Z,0.87
2023-04-15T10:45:15.011Z,0.81
2023-04-15T10:46:15.057Z,0.87
2023-04-15T10:47:14.993Z,0.89
2023-04-15T10:48:15.029Z,0.90
2023-04-15T10:49:15.024Z,0.85
2023-04-15T10:50:15.033Z,0.85
2023-04-15T10:51:15.061Z,0.87
2023-04-15T10:52:15.076Z,0.83
2023-04-15T10:53:15.093Z,0.84
2023-04-15T10:54:15.094Z,0.92
2023-04-15T10:55:15.115Z,0.94
2023-04-15T10:56:15.114Z,0.93
2023-04-15T10:57:15.117Z,0.85
2023-04-15T10:58:15.120Z,0.82
2023-04-15T10:59:15.145Z,0.87
2023-04-15T11:00:15.133Z,0.91
2023-04-15T11:01:15.153Z,0.91
2023-04-15T11:02:15.238Z,0.92
2023-04-15T11:03:15.240Z,0.91
2023-04-15T11:04:15.261Z,0.79
2023-04-15T11:05:15.180Z,0.83
2023-04-15T11:06:15.194Z,1.01
2023-04-15T11:07:15.204Z,1.01
2023-04-15T11:08:15.245Z,0.94
2023-04-15T11:09:15.267Z,0.89
2023-04-15T11:10:15.278Z,0.88
2023-04-15T11:11:15.301Z,0.83
2023-04-15T11:12:15.300Z,0.85
2023-04-15T11:13:15.334Z,0.86
2023-04-15T11:14:15.409Z,0.84
2023-04-15T11:15:15.375Z,0.86
2023-04-15T11:16:15.450Z,0.73
2023-04-15T11:17:15.437Z,0.77
2023-04-15T11:18:15.423Z,0.83
2023-04-15T11:19:15.471Z,0.83
2023-04-15T11:20:15.478Z,0.81
2023-04-15T11:21:15.477Z,0.89
2023-04-15T11:22:15.517Z,0.93
2023-04-15T11:23:15.971Z,0.91
2023-04-15T11:24:15.567Z,0.91
2023-04-15T11:25:15.583Z,0.89
2023-04-15T11:26:15.575Z,0.84
2023-04-15T11:27:15.599Z,0.91
2023-04-15T11:28:15.602Z,1.05
2023-04-15T11:29:15.630Z,1.02
2023-04-15T11:30:15.646Z,0.97
2023-04-15T11:31:15.736Z,0.92
2023-04-15T11:32:15.681Z,0.89
2023-04-15T11:33:15.700Z,0.98
2023-04-15T11:34:15.708Z,1.09
2023-04-15T11:35:15.699Z,1.15
2023-04-15T11:36:15.758Z,1.07
2023-04-15T11:37:15.741Z,1.00
2023-04-15T11:38:15.767Z,1.06
2023-04-15T11:39:15.772Z,1.01
2023-04-15T11:40:15.786Z,1.05
2023-04-15T11:41:15.793Z,1.04
2023-04-15T11:42:15.819Z,1.00
2023-04-15T11:43:15.841Z,1.06
2023-04-15T11:44:15.906Z,1.12
2023-04-15T11:45:15.920Z,1.15
2023-04-15T11:46:16.019Z,1.15
2023-04-15T11:47:15.940Z,1.11
2023-04-15T11:48:15.969Z,1.23
2023-04-15T11:49:16.043Z,1.18
2023-04-15T11:50:16.003Z,1.09
2023-04-15T11:51:16.040Z,1.09
2023-04-15T11:52:16.042Z,1.16
2023-04-15T11:53:16.053Z,1.25
2023-04-15T11:54:16.094Z,1.18
2023-04-15T11:55:16.101Z,1.16
2023-04-15T11:56:16.120Z,1.12
2023-04-15T11:57:16.131Z,1.23
2023-04-15T11:58:16.589Z,1.10
2023-04-15T11:59:16.182Z,1.10
2023-04-15T12:00:16.215Z,1.08
2023-04-15T12:01:16.225Z,1.22
2023-04-15T12:02:16.382Z,1.13
2023-04-15T12:03:16.432Z,1.19
2023-04-15T12:04:16.415Z,1.16
2023-04-15T12:05:16.421Z,1.23
2023-04-15T12:06:16.395Z,1.25
2023-04-15T12:07:16.375Z,1.15
2023-04-15T12:08:16.387Z,1.19
2023-04-15T12:09:16.435Z,1.20
2023-04-15T12:10:16.463Z,1.11
2023-04-15T12:11:16.513Z,1.04
2023-04-15T12:12:16.541Z,1.12
2023-04-15T12:13:16.579Z,1.13
2023-04-15T12:14:16.596Z,1.11
2023-04-15T12:15:16.620Z,1.13
2023-04-15T12:16:16.816Z,1.18
2023-04-15T12:17:16.714Z,1.16
2023-04-15T12:18:16.758Z,1.10
2023-04-15T12:19:16.793Z,1.12
2023-04-15T12:20:16.831Z,1.18
2023-04-15T12:21:16.791Z,1.09
2023-04-15T12:22:16.817Z,1.22
2023-04-15T12:23:16.859Z,1.17
2023-04-15T12:24:16.833Z,1.24
2023-04-15T12:25:16.884Z,1.25
2023-04-15T12:26:16.886Z,1.17
2023-04-15T12:27:16.920Z,1.18
2023-04-15T12:28:16.938Z,1.21
2023-04-15T12:29:16.950Z,1.23
2023-04-15T12:30:17.015Z,1.16
2023-04-15T12:31:17.017Z,1.17
2023-04-15T12:32:17.054Z,1.07
2023-04-15T12:33:17.057Z,1.28
2023-04-15T12:34:17.170Z,1.29
2023-04-15T12:35:17.079Z,1.22
2023-04-15T12:36:17.075Z,1.19
2023-04-15T12:37:17.129Z,1.22
2023-04-15T12:38:17.148Z,1.27
2023-04-15T12:39:17.175Z,1.06
2023-04-15T12:40:17.208Z,1.14
2023-04-15T12:41:17.211Z,1.08
2023-04-15T12:42:17.267Z,1.13
2023-04-15T12:43:17.272Z,1.30
2023-04-15T12:44:17.291Z,1.25
2023-04-15T12:45:17.357Z,1.19
2023-04-15T12:46:17.344Z,1.17
2023-04-15T12:47:17.411Z,1.20
2023-04-15T12:48:17.401Z,1.22
2023-04-15T12:49:17.422Z,1.24
2023-04-15T12:50:17.488Z,1.21
2023-04-15T12:51:17.485Z,1.24
2023-04-15T12:52:17.493Z,1.36
2023-04-15T12:53:17.559Z,1.37
2023-04-15T12:54:17.598Z,1.22
2023-04-15T12:55:17.615Z,1.36
2023-04-15T12:56:17.675Z,1.43
2023-04-15T12:57:17.695Z,1.39
2023-04-15T12:58:17.750Z,1.40
2023-04-15T12:59:17.771Z,1.47
2023-04-15T13:00:17.812Z,1.43
2023-04-15T13:01:17.843Z,1.40
2023-04-15T13:02:18.134Z,1.35
2023-04-15T13:03:18.034Z,0.75
2023-04-15T13:04:18.075Z,0.76
2023-04-15T13:05:18.041Z,0.74
2023-04-15T13:06:18.067Z,0.90
2023-04-15T13:07:18.122Z,1.07
2023-04-15T13:08:18.163Z,1.22
2023-04-15T13:09:18.211Z,1.24
2023-04-15T13:10:18.260Z,1.29
2023-04-15T13:11:18.306Z,1.28
2023-04-15T13:12:18.349Z,1.31
2023-04-15T13:13:18.397Z,1.25
2023-04-15T13:14:18.442Z,1.31
2023-04-15T13:15:18.496Z,1.26
2023-04-15T13:16:18.626Z,1.32
2023-04-15T13:17:18.615Z,1.34
2023-04-15T13:18:18.612Z,1.30
2023-04-15T13:19:18.665Z,1.37